sensor_id;sensor_type;location;lat;lon;timestamp;temperature;humidity
46816;DHT22;32787;53.316;8.670;2023-04-06T00:01:10;-3276.20;91.40
46816;DHT22;32787;53.316;8.670;2023-04-06T00:03:36;-3276.20;91.50
46816;DHT22;32787;53.316;8.670;2023-04-06T00:06:02;-3276.10;91.50
46816;DHT22;32787;53.316;8.670;2023-04-06T00:08:28;-3276.00;91.70
46816;DHT22;32787;53.316;8.670;2023-04-06T00:10:54;-3276.00;91.80
46816;DHT22;32787;53.316;8.670;2023-04-06T00:13:20;-3276.10;91.80
46816;DHT22;32787;53.316;8.670;2023-04-06T00:15:45;-3276.20;91.80
46816;DHT22;32787;53.316;8.670;2023-04-06T00:18:11;-3276.30;91.80
46816;DHT22;32787;53.316;8.670;2023-04-06T00:20:37;-3276.30;91.80
46816;DHT22;32787;53.316;8.670;2023-04-06T00:23:03;-3276.40;91.80
46816;DHT22;32787;53.316;8.670;2023-04-06T00:25:28;-3276.40;91.60
46816;DHT22;32787;53.316;8.670;2023-04-06T00:27:54;-3276.40;91.50
46816;DHT22;32787;53.316;8.670;2023-04-06T00:30:20;-3276.30;91.50
46816;DHT22;32787;53.316;8.670;2023-04-06T00:32:46;-3276.20;91.70
46816;DHT22;32787;53.316;8.670;2023-04-06T00:35:11;-3276.10;91.70
46816;DHT22;32787;53.316;8.670;2023-04-06T00:37:37;-3276.10;91.70
46816;DHT22;32787;53.316;8.670;2023-04-06T00:40:03;-3276.10;91.80
46816;DHT22;32787;53.316;8.670;2023-04-06T00:42:29;-3276.10;91.90
46816;DHT22;32787;53.316;8.670;2023-04-06T00:44:57;-3276.10;92.00
46816;DHT22;32787;53.316;8.670;2023-04-06T00:47:23;-3276.10;92.10
46816;DHT22;32787;53.316;8.670;2023-04-06T00:49:51;-3276.10;92.00
46816;DHT22;32787;53.316;8.670;2023-04-06T00:52:17;-3276.00;92.10
46816;DHT22;32787;53.316;8.670;2023-04-06T00:54:43;-3276.00;92.20
46816;DHT22;32787;53.316;8.670;2023-04-06T00:57:09;-3276.00;92.30
46816;DHT22;32787;53.316;8.670;2023-04-06T00:59:34;-3275.90;92.30
46816;DHT22;32787;53.316;8.670;2023-04-06T01:02:00;-3275.90;92.30
46816;DHT22;32787;53.316;8.670;2023-04-06T01:04:27;-3275.80;92.40
46816;DHT22;32787;53.316;8.670;2023-04-06T01:06:52;-3275.90;92.50
46816;DHT22;32787;53.316;8.670;2023-04-06T01:09:18;-3275.90;92.50
46816;DHT22;32787;53.316;8.670;2023-04-06T01:11:44;-3275.90;92.60
46816;DHT22;32787;53.316;8.670;2023-04-06T01:14:10;-3275.90;92.60
46816;DHT22;32787;53.316;8.670;2023-04-06T01:16:36;-3276.00;92.60
46816;DHT22;32787;53.316;8.670;2023-04-06T01:19:10;-3276.00;92.60
46816;DHT22;32787;53.316;8.670;2023-04-06T01:21:40;-3276.10;92.60
46816;DHT22;32787;53.316;8.670;2023-04-06T01:24:07;-3276.10;92.60
46816;DHT22;32787;53.316;8.670;2023-04-06T01:26:33;-3276.00;92.60
46816;DHT22;32787;53.316;8.670;2023-04-06T01:28:59;-3275.90;92.60
46816;DHT22;32787;53.316;8.670;2023-04-06T01:31:26;-3276.00;92.60
46816;DHT22;32787;53.316;8.670;2023-04-06T01:33:52;-3275.90;92.50
46816;DHT22;32787;53.316;8.670;2023-04-06T01:36:18;-3275.80;92.50
46816;DHT22;32787;53.316;8.670;2023-04-06T01:38:44;-3275.70;92.50
46816;DHT22;32787;53.316;8.670;2023-04-06T01:41:10;-3275.60;92.50
46816;DHT22;32787;53.316;8.670;2023-04-06T01:43:36;-3275.60;92.60
46816;DHT22;32787;53.316;8.670;2023-04-06T01:46:01;-3275.60;92.70
46816;DHT22;32787;53.316;8.670;2023-04-06T01:48:27;-3275.60;92.80
46816;DHT22;32787;53.316;8.670;2023-04-06T01:50:53;-3275.40;92.70
46816;DHT22;32787;53.316;8.670;2023-04-06T01:53:19;-3275.40;92.70
46816;DHT22;32787;53.316;8.670;2023-04-06T01:55:45;-3275.40;92.70
46816;DHT22;32787;53.316;8.670;2023-04-06T01:58:11;-3275.40;92.80
46816;DHT22;32787;53.316;8.670;2023-04-06T02:00:37;-3275.40;92.80
46816;DHT22;32787;53.316;8.670;2023-04-06T02:03:03;-3275.40;92.90
46816;DHT22;32787;53.316;8.670;2023-04-06T02:05:30;-3275.60;93.00
46816;DHT22;32787;53.316;8.670;2023-04-06T02:07:56;-3275.60;92.90
46816;DHT22;32787;53.316;8.670;2023-04-06T02:10:22;-3275.60;92.90
46816;DHT22;32787;53.316;8.670;2023-04-06T02:12:48;-3275.50;92.90
46816;DHT22;32787;53.316;8.670;2023-04-06T02:15:14;-3275.40;92.90
46816;DHT22;32787;53.316;8.670;2023-04-06T02:17:40;-3275.30;92.90
46816;DHT22;32787;53.316;8.670;2023-04-06T02:20:06;-3275.30;93.00
46816;DHT22;32787;53.316;8.670;2023-04-06T02:22:33;-3275.30;93.00
46816;DHT22;32787;53.316;8.670;2023-04-06T02:24:58;-3275.30;93.10
46816;DHT22;32787;53.316;8.670;2023-04-06T02:27:24;-3275.30;93.10
46816;DHT22;32787;53.316;8.670;2023-04-06T02:29:50;-3275.40;93.10
46816;DHT22;32787;53.316;8.670;2023-04-06T02:32:15;-3275.30;93.20
46816;DHT22;32787;53.316;8.670;2023-04-06T02:34:41;-3275.30;93.10
46816;DHT22;32787;53.316;8.670;2023-04-06T02:37:06;-3275.30;93.10
46816;DHT22;32787;53.316;8.670;2023-04-06T02:39:32;-3275.30;93.10
46816;DHT22;32787;53.316;8.670;2023-04-06T02:41:58;-3275.30;93.10
46816;DHT22;32787;53.316;8.670;2023-04-06T02:44:23;-3275.30;93.10
46816;DHT22;32787;53.316;8.670;2023-04-06T02:46:49;-3275.30;93.10
46816;DHT22;32787;53.316;8.670;2023-04-06T02:49:15;-3275.30;93.10
46816;DHT22;32787;53.316;8.670;2023-04-06T02:51:41;-3275.30;93.20
46816;DHT22;32787;53.316;8.670;2023-04-06T02:54:07;-3275.40;93.10
46816;DHT22;32787;53.316;8.670;2023-04-06T02:56:32;-3275.40;93.10
46816;DHT22;32787;53.316;8.670;2023-04-06T02:58:58;-3275.50;93.10
46816;DHT22;32787;53.316;8.670;2023-04-06T03:01:23;-3275.50;93.00
46816;DHT22;32787;53.316;8.670;2023-04-06T03:03:49;-3275.50;93.10
46816;DHT22;32787;53.316;8.670;2023-04-06T03:06:15;-3275.40;93.00
46816;DHT22;32787;53.316;8.670;2023-04-06T03:08:40;-3275.40;93.10
46816;DHT22;32787;53.316;8.670;2023-04-06T03:11:06;-3275.30;93.10
46816;DHT22;32787;53.316;8.670;2023-04-06T03:13:32;-3275.30;93.10
46816;DHT22;32787;53.316;8.670;2023-04-06T03:15:57;-3275.30;93.20
46816;DHT22;32787;53.316;8.670;2023-04-06T03:18:24;-3275.30;93.20
46816;DHT22;32787;53.316;8.670;2023-04-06T03:20:50;-3275.30;93.20
46816;DHT22;32787;53.316;8.670;2023-04-06T03:23:16;-3275.20;93.20
46816;DHT22;32787;53.316;8.670;2023-04-06T03:25:42;-3275.30;93.30
46816;DHT22;32787;53.316;8.670;2023-04-06T03:28:07;-3275.30;93.20
46816;DHT22;32787;53.316;8.670;2023-04-06T03:30:34;-3275.30;93.30
46816;DHT22;32787;53.316;8.670;2023-04-06T03:33:00;-3275.30;93.30
46816;DHT22;32787;53.316;8.670;2023-04-06T03:35:25;-3275.20;93.20
46816;DHT22;32787;53.316;8.670;2023-04-06T03:37:51;-3275.10;93.20
46816;DHT22;32787;53.316;8.670;2023-04-06T03:40:16;-3275.20;93.30
46816;DHT22;32787;53.316;8.670;2023-04-06T03:42:42;-3275.20;93.10
46816;DHT22;32787;53.316;8.670;2023-04-06T03:45:08;-3275.20;93.20
46816;DHT22;32787;53.316;8.670;2023-04-06T03:47:34;-3275.10;93.20
46816;DHT22;32787;53.316;8.670;2023-04-06T03:50:00;-3275.10;93.20
46816;DHT22;32787;53.316;8.670;2023-04-06T03:52:26;-3275.30;93.30
46816;DHT22;32787;53.316;8.670;2023-04-06T03:54:52;-3275.10;93.20
46816;DHT22;32787;53.316;8.670;2023-04-06T03:57:18;-3275.10;93.20
46816;DHT22;32787;53.316;8.670;2023-04-06T03:59:43;-3275.10;93.20
46816;DHT22;32787;53.316;8.670;2023-04-06T04:02:09;-3275.00;93.20
46816;DHT22;32787;53.316;8.670;2023-04-06T04:04:34;-3274.90;93.20
46816;DHT22;32787;53.316;8.670;2023-04-06T04:07:00;-3274.90;93.30
46816;DHT22;32787;53.316;8.670;2023-04-06T04:09:26;-3275.10;93.30
46816;DHT22;32787;53.316;8.670;2023-04-06T04:11:51;-3275.20;93.30
46816;DHT22;32787;53.316;8.670;2023-04-06T04:14:17;-3275.10;93.10
46816;DHT22;32787;53.316;8.670;2023-04-06T04:16:42;-3275.00;93.00
46816;DHT22;32787;53.316;8.670;2023-04-06T04:19:08;-3274.90;93.00
46816;DHT22;32787;53.316;8.670;2023-04-06T04:21:41;-3274.90;93.00
46816;DHT22;32787;53.316;8.670;2023-04-06T04:24:07;-3274.90;92.80
46816;DHT22;32787;53.316;8.670;2023-04-06T04:26:32;-3274.80;92.80
46816;DHT22;32787;53.316;8.670;2023-04-06T04:28:58;-3274.70;92.80
46816;DHT22;32787;53.316;8.670;2023-04-06T04:31:23;-3274.70;92.90
46816;DHT22;32787;53.316;8.670;2023-04-06T04:33:49;-3274.70;93.00
46816;DHT22;32787;53.316;8.670;2023-04-06T04:36:15;-3274.70;93.00
46816;DHT22;32787;53.316;8.670;2023-04-06T04:38:41;-3274.70;93.10
46816;DHT22;32787;53.316;8.670;2023-04-06T04:41:06;-3274.80;93.10
46816;DHT22;32787;53.316;8.670;2023-04-06T04:43:32;-3274.80;93.20
46816;DHT22;32787;53.316;8.670;2023-04-06T04:45:57;-3274.80;93.20
46816;DHT22;32787;53.316;8.670;2023-04-06T04:48:24;-3274.80;93.20
46816;DHT22;32787;53.316;8.670;2023-04-06T04:50:50;-3274.90;93.10
46816;DHT22;32787;53.316;8.670;2023-04-06T04:53:16;-3274.80;93.10
46816;DHT22;32787;53.316;8.670;2023-04-06T04:55:41;-3274.90;93.10
46816;DHT22;32787;53.316;8.670;2023-04-06T04:58:07;-3275.00;93.00
46816;DHT22;32787;53.316;8.670;2023-04-06T05:00:34;-3275.00;92.90
46816;DHT22;32787;53.316;8.670;2023-04-06T05:03:00;-3275.00;92.80
46816;DHT22;32787;53.316;8.670;2023-04-06T05:05:25;-3274.90;92.80
46816;DHT22;32787;53.316;8.670;2023-04-06T05:07:51;-3274.90;92.80
46816;DHT22;32787;53.316;8.670;2023-04-06T05:10:17;-3275.20;93.00
46816;DHT22;32787;53.316;8.670;2023-04-06T05:12:42;-3275.20;93.00
46816;DHT22;32787;53.316;8.670;2023-04-06T05:15:09;-3275.50;93.00
46816;DHT22;32787;53.316;8.670;2023-04-06T05:17:35;-3275.40;92.80
46816;DHT22;32787;53.316;8.670;2023-04-06T05:20:00;-3275.50;92.70
46816;DHT22;32787;53.316;8.670;2023-04-06T05:22:26;-3275.60;92.70
46816;DHT22;32787;53.316;8.670;2023-04-06T05:24:51;-3275.60;92.70
46816;DHT22;32787;53.316;8.670;2023-04-06T05:27:17;-3275.60;92.60
46816;DHT22;32787;53.316;8.670;2023-04-06T05:29:43;-3275.80;92.60
46816;DHT22;32787;53.316;8.670;2023-04-06T05:32:08;-3275.80;92.50
46816;DHT22;32787;53.316;8.670;2023-04-06T05:34:34;-3275.90;92.40
46816;DHT22;32787;53.316;8.670;2023-04-06T05:37:00;-3276.00;92.40
46816;DHT22;32787;53.316;8.670;2023-04-06T05:39:26;-3276.20;92.30
46816;DHT22;32787;53.316;8.670;2023-04-06T05:41:51;-3276.20;92.10
46816;DHT22;32787;53.316;8.670;2023-04-06T05:44:17;-3276.40;92.00
46816;DHT22;32787;53.316;8.670;2023-04-06T05:46:43;-3276.60;91.40
46816;DHT22;32787;53.316;8.670;2023-04-06T05:49:08;-3276.60;91.10
46816;DHT22;32787;53.316;8.670;2023-04-06T05:51:34;0.00;90.70
46816;DHT22;32787;53.316;8.670;2023-04-06T05:53:59;0.00;90.50
46816;DHT22;32787;53.316;8.670;2023-04-06T05:56:25;0.00;89.90
46816;DHT22;32787;53.316;8.670;2023-04-06T05:58:51;0.20;89.80
46816;DHT22;32787;53.316;8.670;2023-04-06T06:01:17;0.30;89.70
46816;DHT22;32787;53.316;8.670;2023-04-06T06:03:43;0.40;89.50
46816;DHT22;32787;53.316;8.670;2023-04-06T06:06:08;0.50;89.20
46816;DHT22;32787;53.316;8.670;2023-04-06T06:08:34;0.60;89.20
46816;DHT22;32787;53.316;8.670;2023-04-06T06:11:00;0.60;88.90
46816;DHT22;32787;53.316;8.670;2023-04-06T06:13:27;0.70;88.70
46816;DHT22;32787;53.316;8.670;2023-04-06T06:15:52;0.90;86.40
46816;DHT22;32787;53.316;8.670;2023-04-06T06:18:18;1.00;86.00
46816;DHT22;32787;53.316;8.670;2023-04-06T06:20:44;1.10;85.80
46816;DHT22;32787;53.316;8.670;2023-04-06T06:23:09;1.20;85.90
46816;DHT22;32787;53.316;8.670;2023-04-06T06:25:35;1.10;86.10
46816;DHT22;32787;53.316;8.670;2023-04-06T06:28:01;1.30;86.30
46816;DHT22;32787;53.316;8.670;2023-04-06T06:30:26;1.40;85.20
46816;DHT22;32787;53.316;8.670;2023-04-06T06:32:52;1.50;84.70
46816;DHT22;32787;53.316;8.670;2023-04-06T06:35:18;1.80;82.70
46816;DHT22;32787;53.316;8.670;2023-04-06T06:37:43;1.90;83.10
46816;DHT22;32787;53.316;8.670;2023-04-06T06:40:10;2.00;80.90
46816;DHT22;32787;53.316;8.670;2023-04-06T06:42:38;2.20;79.30
46816;DHT22;32787;53.316;8.670;2023-04-06T06:45:05;2.40;79.10
46816;DHT22;32787;53.316;8.670;2023-04-06T06:47:31;2.40;78.70
46816;DHT22;32787;53.316;8.670;2023-04-06T06:49:56;2.50;78.40
46816;DHT22;32787;53.316;8.670;2023-04-06T06:52:22;2.60;78.00
46816;DHT22;32787;53.316;8.670;2023-04-06T06:54:49;2.60;78.00
46816;DHT22;32787;53.316;8.670;2023-04-06T06:57:15;2.80;77.10
46816;DHT22;32787;53.316;8.670;2023-04-06T06:59:40;2.90;77.60
46816;DHT22;32787;53.316;8.670;2023-04-06T07:02:06;2.90;77.50
46816;DHT22;32787;53.316;8.670;2023-04-06T07:04:32;3.10;76.00
46816;DHT22;32787;53.316;8.670;2023-04-06T07:06:57;3.20;75.40
46816;DHT22;32787;53.316;8.670;2023-04-06T07:09:23;3.40;75.60
46816;DHT22;32787;53.316;8.670;2023-04-06T07:11:48;3.40;75.50
46816;DHT22;32787;53.316;8.670;2023-04-06T07:14:15;3.60;75.80
46816;DHT22;32787;53.316;8.670;2023-04-06T07:16:41;3.80;73.30
46816;DHT22;32787;53.316;8.670;2023-04-06T07:19:07;3.90;72.50
46816;DHT22;32787;53.316;8.670;2023-04-06T07:21:34;4.00;71.70
46816;DHT22;32787;53.316;8.670;2023-04-06T07:24:00;4.20;72.50
46816;DHT22;32787;53.316;8.670;2023-04-06T07:26:27;4.40;72.70
46816;DHT22;32787;53.316;8.670;2023-04-06T07:28:53;4.50;71.40
46816;DHT22;32787;53.316;8.670;2023-04-06T07:31:18;4.60;70.40
46816;DHT22;32787;53.316;8.670;2023-04-06T07:33:44;4.70;70.90
46816;DHT22;32787;53.316;8.670;2023-04-06T07:36:10;4.90;68.80
46816;DHT22;32787;53.316;8.670;2023-04-06T07:38:36;5.40;65.30
46816;DHT22;32787;53.316;8.670;2023-04-06T07:41:02;5.60;63.40
46816;DHT22;32787;53.316;8.670;2023-04-06T07:43:29;5.60;63.10
46816;DHT22;32787;53.316;8.670;2023-04-06T07:45:56;5.70;62.50
46816;DHT22;32787;53.316;8.670;2023-04-06T07:48:23;6.00;61.70
46816;DHT22;32787;53.316;8.670;2023-04-06T07:50:48;6.10;60.50
46816;DHT22;32787;53.316;8.670;2023-04-06T07:53:14;6.20;62.50
46816;DHT22;32787;53.316;8.670;2023-04-06T07:55:40;6.40;61.40
46816;DHT22;32787;53.316;8.670;2023-04-06T07:58:05;6.90;60.70
46816;DHT22;32787;53.316;8.670;2023-04-06T08:00:32;7.40;59.50
46816;DHT22;32787;53.316;8.670;2023-04-06T08:02:57;7.50;57.50
46816;DHT22;32787;53.316;8.670;2023-04-06T08:05:23;7.10;57.50
46816;DHT22;32787;53.316;8.670;2023-04-06T08:07:48;6.70;58.30
46816;DHT22;32787;53.316;8.670;2023-04-06T08:10:14;6.40;58.80
46816;DHT22;32787;53.316;8.670;2023-04-06T08:12:40;6.40;59.30
46816;DHT22;32787;53.316;8.670;2023-04-06T08:15:06;6.40;61.30
46816;DHT22;32787;53.316;8.670;2023-04-06T08:17:32;6.40;60.40
46816;DHT22;32787;53.316;8.670;2023-04-06T08:19:59;6.50;61.30
46816;DHT22;32787;53.316;8.670;2023-04-06T08:22:25;6.70;60.40
46816;DHT22;32787;53.316;8.670;2023-04-06T08:24:51;7.00;58.50
46816;DHT22;32787;53.316;8.670;2023-04-06T08:27:17;7.10;59.30
46816;DHT22;32787;53.316;8.670;2023-04-06T08:29:42;6.90;60.30
46816;DHT22;32787;53.316;8.670;2023-04-06T08:32:08;7.00;60.40
46816;DHT22;32787;53.316;8.670;2023-04-06T08:34:33;7.20;57.80
46816;DHT22;32787;53.316;8.670;2023-04-06T08:36:59;7.60;58.00
46816;DHT22;32787;53.316;8.670;2023-04-06T08:39:25;7.60;58.00
46816;DHT22;32787;53.316;8.670;2023-04-06T08:41:53;7.90;58.20
46816;DHT22;32787;53.316;8.670;2023-04-06T08:44:22;8.20;54.70
46816;DHT22;32787;53.316;8.670;2023-04-06T08:46:48;8.40;54.50
46816;DHT22;32787;53.316;8.670;2023-04-06T08:49:16;8.40;54.00
46816;DHT22;32787;53.316;8.670;2023-04-06T08:51:42;8.30;54.50
46816;DHT22;32787;53.316;8.670;2023-04-06T08:54:08;7.90;54.10
46816;DHT22;32787;53.316;8.670;2023-04-06T08:56:35;7.90;56.40
46816;DHT22;32787;53.316;8.670;2023-04-06T08:59:03;7.90;56.30
46816;DHT22;32787;53.316;8.670;2023-04-06T09:01:29;7.90;55.30
46816;DHT22;32787;53.316;8.670;2023-04-06T09:03:57;8.20;56.90
46816;DHT22;32787;53.316;8.670;2023-04-06T09:06:24;8.40;54.20
46816;DHT22;32787;53.316;8.670;2023-04-06T09:08:52;8.40;55.90
46816;DHT22;32787;53.316;8.670;2023-04-06T09:11:18;8.40;54.20
46816;DHT22;32787;53.316;8.670;2023-04-06T09:13:49;8.40;53.90
46816;DHT22;32787;53.316;8.670;2023-04-06T09:16:15;8.50;53.30
46816;DHT22;32787;53.316;8.670;2023-04-06T09:18:41;8.70;51.60
46816;DHT22;32787;53.316;8.670;2023-04-06T09:21:08;8.40;51.00
46816;DHT22;32787;53.316;8.670;2023-04-06T09:23:34;8.30;51.20
46816;DHT22;32787;53.316;8.670;2023-04-06T09:26:12;8.40;52.10
46816;DHT22;32787;53.316;8.670;2023-04-06T09:28:45;8.40;52.40
46816;DHT22;32787;53.316;8.670;2023-04-06T09:31:12;8.50;51.60
46816;DHT22;32787;53.316;8.670;2023-04-06T09:33:40;8.40;52.20
46816;DHT22;32787;53.316;8.670;2023-04-06T09:36:07;8.60;52.20
46816;DHT22;32787;53.316;8.670;2023-04-06T09:38:58;8.60;52.40
46816;DHT22;32787;53.316;8.670;2023-04-06T09:43:52;8.60;50.30
46816;DHT22;32787;53.316;8.670;2023-04-06T09:46:21;8.60;50.40
46816;DHT22;32787;53.316;8.670;2023-04-06T09:48:48;8.60;51.10
46816;DHT22;32787;53.316;8.670;2023-04-06T09:51:15;8.80;52.30
46816;DHT22;32787;53.316;8.670;2023-04-06T09:53:42;8.80;50.90
46816;DHT22;32787;53.316;8.670;2023-04-06T09:56:12;8.90;53.30
46816;DHT22;32787;53.316;8.670;2023-04-06T09:58:43;9.10;50.50
46816;DHT22;32787;53.316;8.670;2023-04-06T10:01:15;9.10;50.50
46816;DHT22;32787;53.316;8.670;2023-04-06T10:06:27;9.30;53.00
46816;DHT22;32787;53.316;8.670;2023-04-06T10:08:55;9.30;49.20
46816;DHT22;32787;53.316;8.670;2023-04-06T10:11:22;9.40;49.30
46816;DHT22;32787;53.316;8.670;2023-04-06T10:13:48;9.40;49.80
46816;DHT22;32787;53.316;8.670;2023-04-06T10:16:14;9.50;50.20
46816;DHT22;32787;53.316;8.670;2023-04-06T10:18:46;9.70;49.60
46816;DHT22;32787;53.316;8.670;2023-04-06T10:21:16;9.80;48.60
46816;DHT22;32787;53.316;8.670;2023-04-06T10:23:52;9.70;49.50
46816;DHT22;32787;53.316;8.670;2023-04-06T10:26:21;9.50;49.00
46816;DHT22;32787;53.316;8.670;2023-04-06T10:28:48;9.60;50.00
46816;DHT22;32787;53.316;8.670;2023-04-06T10:31:13;9.60;49.30
46816;DHT22;32787;53.316;8.670;2023-04-06T10:33:40;9.90;50.20
46816;DHT22;32787;53.316;8.670;2023-04-06T10:36:10;10.00;50.50
46816;DHT22;32787;53.316;8.670;2023-04-06T10:38:40;10.10;50.00
46816;DHT22;32787;53.316;8.670;2023-04-06T10:41:10;10.00;48.90
46816;DHT22;32787;53.316;8.670;2023-04-06T10:43:38;9.90;49.70
46816;DHT22;32787;53.316;8.670;2023-04-06T10:46:05;9.90;48.50
46816;DHT22;32787;53.316;8.670;2023-04-06T10:48:44;9.90;48.70
46816;DHT22;32787;53.316;8.670;2023-04-06T10:51:15;10.00;50.20
46816;DHT22;32787;53.316;8.670;2023-04-06T10:53:45;10.20;48.70
46816;DHT22;32787;53.316;8.670;2023-04-06T10:56:14;10.20;49.30
46816;DHT22;32787;53.316;8.670;2023-04-06T10:58:47;10.30;49.00
46816;DHT22;32787;53.316;8.670;2023-04-06T11:01:15;10.60;52.10
46816;DHT22;32787;53.316;8.670;2023-04-06T11:03:45;10.70;48.90
46816;DHT22;32787;53.316;8.670;2023-04-06T11:06:18;10.60;47.60
46816;DHT22;32787;53.316;8.670;2023-04-06T11:08:44;10.90;48.50
46816;DHT22;32787;53.316;8.670;2023-04-06T11:11:11;11.30;46.10
46816;DHT22;32787;53.316;8.670;2023-04-06T11:13:46;11.30;46.10
46816;DHT22;32787;53.316;8.670;2023-04-06T11:16:13;11.80;45.20
46816;DHT22;32787;53.316;8.670;2023-04-06T11:18:53;12.50;43.50
46816;DHT22;32787;53.316;8.670;2023-04-06T11:21:31;13.20;42.30
46816;DHT22;32787;53.316;8.670;2023-04-06T11:24:08;13.80;41.30
46816;DHT22;32787;53.316;8.670;2023-04-06T11:26:44;13.50;41.20
46816;DHT22;32787;53.316;8.670;2023-04-06T11:29:16;12.80;41.00
46816;DHT22;32787;53.316;8.670;2023-04-06T11:31:46;12.40;42.40
46816;DHT22;32787;53.316;8.670;2023-04-06T11:34:17;12.40;42.30
46816;DHT22;32787;53.316;8.670;2023-04-06T11:36:45;12.20;42.80
46816;DHT22;32787;53.316;8.670;2023-04-06T11:39:12;11.80;43.70
46816;DHT22;32787;53.316;8.670;2023-04-06T11:41:38;11.70;43.90
46816;DHT22;32787;53.316;8.670;2023-04-06T11:44:05;11.50;45.30
46816;DHT22;32787;53.316;8.670;2023-04-06T11:46:31;11.40;44.90
46816;DHT22;32787;53.316;8.670;2023-04-06T11:49:00;11.40;44.30
46816;DHT22;32787;53.316;8.670;2023-04-06T11:51:27;11.40;46.50
46816;DHT22;32787;53.316;8.670;2023-04-06T11:53:53;11.40;44.60
46816;DHT22;32787;53.316;8.670;2023-04-06T11:56:25;11.50;45.00
46816;DHT22;32787;53.316;8.670;2023-04-06T11:58:52;11.70;45.50
46816;DHT22;32787;53.316;8.670;2023-04-06T12:01:18;11.80;45.60
46816;DHT22;32787;53.316;8.670;2023-04-06T12:03:43;11.90;44.80
46816;DHT22;32787;53.316;8.670;2023-04-06T12:06:09;11.80;43.60
46816;DHT22;32787;53.316;8.670;2023-04-06T12:08:35;11.60;44.60
46816;DHT22;32787;53.316;8.670;2023-04-06T12:11:00;11.70;45.80
46816;DHT22;32787;53.316;8.670;2023-04-06T12:13:26;11.90;47.10
46816;DHT22;32787;53.316;8.670;2023-04-06T12:15:52;11.90;44.00
46816;DHT22;32787;53.316;8.670;2023-04-06T12:18:18;12.10;45.80
46816;DHT22;32787;53.316;8.670;2023-04-06T12:20:43;12.00;43.70
46816;DHT22;32787;53.316;8.670;2023-04-06T12:23:09;11.90;44.50
46816;DHT22;32787;53.316;8.670;2023-04-06T12:25:35;12.10;43.60
46816;DHT22;32787;53.316;8.670;2023-04-06T12:28:01;12.20;41.40
46816;DHT22;32787;53.316;8.670;2023-04-06T12:30:27;12.40;44.20
46816;DHT22;32787;53.316;8.670;2023-04-06T12:32:52;12.30;42.10
46816;DHT22;32787;53.316;8.670;2023-04-06T12:35:18;12.30;40.30
46816;DHT22;32787;53.316;8.670;2023-04-06T12:37:43;12.40;42.40
46816;DHT22;32787;53.316;8.670;2023-04-06T12:40:10;12.50;41.20
46816;DHT22;32787;53.316;8.670;2023-04-06T12:42:38;12.60;40.00
46816;DHT22;32787;53.316;8.670;2023-04-06T12:45:06;12.80;41.40
46816;DHT22;32787;53.316;8.670;2023-04-06T12:47:31;12.80;41.10
46816;DHT22;32787;53.316;8.670;2023-04-06T12:49:57;12.60;40.70
46816;DHT22;32787;53.316;8.670;2023-04-06T12:52:23;12.50;40.50
46816;DHT22;32787;53.316;8.670;2023-04-06T12:54:49;12.70;40.90
46816;DHT22;32787;53.316;8.670;2023-04-06T12:57:15;12.90;41.40
46816;DHT22;32787;53.316;8.670;2023-04-06T12:59:43;12.80;38.80
46816;DHT22;32787;53.316;8.670;2023-04-06T13:02:10;12.80;40.90
46816;DHT22;32787;53.316;8.670;2023-04-06T13:04:35;12.90;39.40
46816;DHT22;32787;53.316;8.670;2023-04-06T13:07:01;13.00;39.20
46816;DHT22;32787;53.316;8.670;2023-04-06T13:09:27;13.10;38.40
46816;DHT22;32787;53.316;8.670;2023-04-06T13:11:52;13.30;39.30
46816;DHT22;32787;53.316;8.670;2023-04-06T13:14:18;13.20;37.70
46816;DHT22;32787;53.316;8.670;2023-04-06T13:16:43;13.20;37.60
46816;DHT22;32787;53.316;8.670;2023-04-06T13:19:09;13.10;37.90
46816;DHT22;32787;53.316;8.670;2023-04-06T13:21:36;13.20;38.60
46816;DHT22;32787;53.316;8.670;2023-04-06T13:24:01;13.00;38.70
46816;DHT22;32787;53.316;8.670;2023-04-06T13:26:27;13.10;40.20
46816;DHT22;32787;53.316;8.670;2023-04-06T13:28:54;13.20;37.10
46816;DHT22;32787;53.316;8.670;2023-04-06T13:31:22;13.00;36.90
46816;DHT22;32787;53.316;8.670;2023-04-06T13:33:47;13.00;36.80
46816;DHT22;32787;53.316;8.670;2023-04-06T13:36:13;13.20;38.50
46816;DHT22;32787;53.316;8.670;2023-04-06T13:38:39;13.40;36.20
46816;DHT22;32787;53.316;8.670;2023-04-06T13:41:05;13.30;37.50
46816;DHT22;32787;53.316;8.670;2023-04-06T13:43:31;13.30;38.30
46816;DHT22;32787;53.316;8.670;2023-04-06T13:45:57;13.40;36.80
46816;DHT22;32787;53.316;8.670;2023-04-06T13:48:25;13.50;37.40
46816;DHT22;32787;53.316;8.670;2023-04-06T13:50:51;13.60;36.50
46816;DHT22;32787;53.316;8.670;2023-04-06T13:53:17;13.70;37.20
46816;DHT22;32787;53.316;8.670;2023-04-06T13:55:43;13.60;36.90
46816;DHT22;32787;53.316;8.670;2023-04-06T13:58:09;13.50;36.70
46816;DHT22;32787;53.316;8.670;2023-04-06T14:00:35;13.50;35.00
46816;DHT22;32787;53.316;8.670;2023-04-06T14:03:01;13.30;36.90
46816;DHT22;32787;53.316;8.670;2023-04-06T14:05:30;13.50;37.90
46816;DHT22;32787;53.316;8.670;2023-04-06T14:07:55;13.50;35.60
46816;DHT22;32787;53.316;8.670;2023-04-06T14:10:21;13.70;37.50
46816;DHT22;32787;53.316;8.670;2023-04-06T14:12:49;14.60;35.60
46816;DHT22;32787;53.316;8.670;2023-04-06T14:15:15;14.60;34.70
46816;DHT22;32787;53.316;8.670;2023-04-06T14:17:40;14.90;33.60
46816;DHT22;32787;53.316;8.670;2023-04-06T14:20:07;15.90;32.50
46816;DHT22;32787;53.316;8.670;2023-04-06T14:22:32;17.10;30.20
46816;DHT22;32787;53.316;8.670;2023-04-06T14:24:58;17.80;28.70
46816;DHT22;32787;53.316;8.670;2023-04-06T14:27:24;18.20;28.10
46816;DHT22;32787;53.316;8.670;2023-04-06T14:29:50;18.40;28.90
46816;DHT22;32787;53.316;8.670;2023-04-06T14:32:16;18.10;27.80
46816;DHT22;32787;53.316;8.670;2023-04-06T14:34:42;17.90;30.80
46816;DHT22;32787;53.316;8.670;2023-04-06T14:37:08;17.30;30.40
46816;DHT22;32787;53.316;8.670;2023-04-06T14:39:33;16.30;29.80
46816;DHT22;32787;53.316;8.670;2023-04-06T14:41:59;15.70;31.80
46816;DHT22;32787;53.316;8.670;2023-04-06T14:44:24;15.40;31.90
46816;DHT22;32787;53.316;8.670;2023-04-06T14:46:50;15.80;32.70
46816;DHT22;32787;53.316;8.670;2023-04-06T14:49:16;16.00;33.50
46816;DHT22;32787;53.316;8.670;2023-04-06T14:51:42;15.90;33.20
46816;DHT22;32787;53.316;8.670;2023-04-06T14:54:07;15.70;32.60
46816;DHT22;32787;53.316;8.670;2023-04-06T14:56:33;15.30;32.80
46816;DHT22;32787;53.316;8.670;2023-04-06T14:58:59;14.60;33.40
46816;DHT22;32787;53.316;8.670;2023-04-06T15:01:27;14.10;35.00
46816;DHT22;32787;53.316;8.670;2023-04-06T15:03:53;14.40;33.60
46816;DHT22;32787;53.316;8.670;2023-04-06T15:06:18;14.30;35.10
46816;DHT22;32787;53.316;8.670;2023-04-06T15:08:46;14.60;35.10
46816;DHT22;32787;53.316;8.670;2023-04-06T15:11:12;14.80;33.80
46816;DHT22;32787;53.316;8.670;2023-04-06T15:13:39;14.90;33.90
46816;DHT22;32787;53.316;8.670;2023-04-06T15:16:05;14.90;34.40
46816;DHT22;32787;53.316;8.670;2023-04-06T15:18:32;15.10;33.00